Chickering American River Reserve, California Weather observations

Data are for 10 minute period ending at time listed.
 Day   Time   Solar   Ave.   Ave.  Ave.  Vector  Max.   Baro.   Total    
  of    of     Rad.   Air    Rel.  Wind   Wind   Wind  Press.  Precip.   
Year   Day            Temp.  Hum.  Speed  Dir.   Gust                    
2015   (PST)  Kw/m2    F      %     mph   deg.    mph    mb.     in.     
-------------------------------------------------------------------------
 186   20:10   0.00   62.7    65    1.0   190     2.3   821.0    0.00 
 186   20:20   0.00   61.5    68    1.8   217     2.6   821.2    0.00 
 186   20:30   0.00   60.8    70    1.1   187     2.3   821.3    0.00 
 186   20:40   0.00   59.9    72    1.4   202     2.5   821.4    0.00 
 186   20:50   0.00   59.1    73    1.5   193     2.3   821.4    0.00 
 186   21:00   0.00   58.5    74    1.1   198     2.1   821.4    0.00 
 186   21:10   0.00   58.2    75    1.1   222     2.1   821.5    0.00 
 186   21:20   0.00   57.9    75    1.2   212     2.3   821.5    0.00 
 186   21:30   0.00   57.3    76    1.7   218     3.0   821.6    0.00 
 186   21:40   0.00   57.0    76    1.9   227     2.7   821.6    0.00 
 186   21:50   0.00   56.7    77    1.4   187     2.4   821.7    0.00 
 186   22:00   0.00   56.3    79    2.0   215     3.1   821.8    0.00 
 186   22:10   0.00   56.0    79    0.5   197     1.5   821.8    0.00 
 186   22:20   0.00   55.8    80    1.0   210     2.2   821.9    0.00 
 186   22:30   0.00   55.7    81    1.2   206     2.3   821.9    0.00 
 186   22:40   0.00   55.6    81    1.5   223     2.6   821.9    0.00 
 186   22:50   0.00   55.4    81    2.0   212     2.8   821.9    0.00 
 186   23:00   0.00   55.1    82    2.0   201     2.8   821.9    0.00 
 186   23:10   0.00   54.6    82    1.6   186     2.4   822.0    0.00 
 186   23:20   0.00   54.5    83    1.5   209     2.1   822.0    0.00 
 186   23:30   0.00   54.5    83    1.5   194     2.4   822.0    0.00 
 186   23:40   0.00   54.3    83    1.9   212     3.0   822.0    0.00 
 186   23:50   0.00   54.1    83    0.9   177     2.0   821.9    0.00 
 187    0:00   0.00   54.0    83    1.4   218     2.8   822.0    0.00 
 187    0:10   0.00   54.2    82    1.3   203     2.9   821.9    0.00 
 187    0:20   0.00   53.7    82    1.3   206     2.2   821.9    0.00 
 187    0:30   0.00   53.8    82    1.6   215     2.9   821.9    0.00 
 187    0:40   0.00   53.8    82    1.5   195     3.1   821.9    0.00 
 187    0:50   0.00   53.3    83    1.3   189     2.8   821.9    0.00 
 187    1:00   0.00   53.3    84    1.5   205     2.6   821.9    0.00 
 187    1:10   0.00   53.2    84    2.1   198     3.5   821.9    0.00 
 187    1:20   0.00   53.2    85    1.7   210     2.5   821.9    0.00 
 187    1:30   0.00   53.2    84    1.3   183     3.0   821.9    0.00 
 187    1:40   0.00   53.0    84    1.8   200     2.6   821.9    0.00 
 187    1:50   0.00   53.2    84    1.8   205     2.8   822.0    0.00 
 187    2:00   0.00   53.1    85    1.3   210     1.9   821.9    0.00 
 187    2:10   0.00   53.0    84    1.3   190     2.5   821.9    0.00 
 187    2:20   0.00   52.6    86    1.2   200     2.0   821.9    0.00 
 187    2:30   0.00   53.0    84    1.4   199     2.3   821.9    0.00 
 187    2:40   0.00   52.6    86    1.8   217     2.6   821.9    0.00 
 187    2:50   0.00   53.1    84    1.8   216     2.9   821.9    0.00 
 187    3:00   0.00   53.1    84    1.7   207     2.6   821.8    0.00 
 187    3:10   0.00   52.6    85    1.4   192     2.3   821.9    0.00 
 187    3:20   0.00   52.7    85    1.8   206     2.8   821.9    0.00 
 187    3:30   0.00   52.1    86    1.9   194     2.6   821.9    0.00 
 187    3:40   0.00   52.0    87    1.5   210     2.3   822.0    0.00 
 187    3:50   0.00   52.0    87    1.6   199     2.3   822.0    0.00 
 187    4:00   0.00   51.7    88    1.4   196     2.4   822.0    0.00 
 187    4:10   0.00   51.7    88    1.5   202     2.3   822.0    0.00 
 187    4:20   0.00   51.5    88    1.7   196     2.3   822.2    0.00 
 187    4:30   0.00   51.5    88    1.2   202     1.9   822.2    0.00 
 187    4:40   0.00   51.9    88    1.6   209     2.7   822.3    0.00 
 187    4:50   0.00   52.0    88    1.6   207     2.3   822.4    0.00 
 187    5:00   0.00   51.6    88    1.3   190     2.3   822.5    0.00 
 187    5:10   0.00   51.3    89    1.9   195     2.6   822.5    0.00 
 187    5:20   0.01   51.2    90    1.3   186     2.4   822.6    0.00 
 187    5:30   0.05   51.6    90    1.5   200     2.7   822.7    0.00 
 187    5:40   0.10   52.4    89    1.4   194     2.6   822.7    0.00 
 187    5:50   0.13   53.8    87    0.7   188     1.5   822.8    0.00 
 187    6:00   0.16   57.1    80    0.5   218     1.7   822.8    0.00 
 187    6:10   0.19   60.2    72    0.3    49     3.0   822.8    0.00 
 187    6:20   0.22   62.1    68    0.9   150     2.9   822.8    0.00 
 187    6:30   0.25   62.9    68    0.7   154     2.2   822.9    0.00 
 187    6:40   0.21   64.8    65    0.3   120     1.8   822.8    0.00 
 187    6:50   0.19   66.5    60    0.7    73     2.2   822.7    0.00 
 187    7:00   0.10   68.5    57    1.3    82     3.1   822.6    0.00 
 187    7:10   0.28   69.7    54    1.2    52     3.0   822.6    0.00 
 187    7:20   0.42   70.5    51    0.7    72     2.2   822.7    0.00 
 187    7:30   0.46   71.5    48    1.1    74     2.6   822.6    0.00 
 187    7:40   0.49   71.9    50    1.2    56     2.6   822.6    0.00 
 187    7:50   0.53   71.5    48    1.2    34     3.4   822.5    0.00 
 187    8:00   0.56   72.8    46    1.3    92     5.0   822.4    0.00 
 187    8:10   0.59   73.3    46    1.6   350     4.7   822.5    0.00 
 187    8:20   0.62   74.6    44    1.4    58     4.1   822.6    0.00 
 187    8:30   0.65   75.8    42    0.9   135     4.7   822.6    0.00 
 187    8:40   0.68   75.2    40    1.3   265     4.0   822.7    0.00 
 187    8:50   0.71   75.4    41    1.3   148     5.5   822.8    0.00 
 187    9:00   0.73   75.6    43    1.7   104     7.6   822.8    0.00 
 187    9:10   0.76   75.9    41    1.8   161     5.3   822.9    0.00 
 187    9:20   0.79   76.1    42    1.9    85     7.2   822.9    0.00 
 187    9:30   0.82   76.0    42    1.8   106     6.4   822.9    0.00 
 187    9:40   0.84   76.2    35    2.1   125     7.0   823.0    0.00 
 187    9:50   0.87   76.3    37    1.8   333     4.7   823.1    0.00 
 187   10:00   0.88   75.5    42    3.0   347     8.1   823.1    0.00 
 187   10:10   0.90   76.8    42    1.1    42     4.5   823.0    0.00 
 187   10:20   0.91   76.4    42    2.5   357     7.0   823.1    0.00 
 187   10:30   0.93   76.5    41    2.1   359     7.4   823.1    0.00 
 187   10:40   0.94   76.6    38    2.0    81     7.5   823.1    0.00 
 187   10:50   0.97   77.2    37    1.9   149     5.2   823.0    0.00 
 187   11:00   0.97   77.3    39    2.8   348     8.6   823.0    0.00 
 187   11:10   0.94   76.9    39    2.7    12     9.1   823.1    0.00 
 187   11:20   0.99   77.2    38    2.0    22     8.5   823.1    0.00 
 187   11:30   1.01   79.6    37    2.2    32     7.8   823.1    0.00 
 187   11:40   1.02   79.2    36    2.5   346     9.6   823.1    0.00 
 187   11:50   1.00   78.2    36    2.4   260     6.9   823.0    0.00 
 187   12:00   0.98   78.5    36    2.2    11     6.9   823.0    0.00 
 187   12:10   1.01   79.0    36    2.4    11     8.8   822.9    0.00 
 187   12:20   1.00   79.1    34    2.5     9    10.1   822.8    0.00 
 187   12:30   0.92   79.4    34    1.8    65     6.7   822.8    0.00 
 187   12:40   0.63   79.1    34    2.1    10     7.5   822.8    0.00 
 187   12:50   0.73   78.7    35    2.3    19     6.6   822.8    0.00 
 187   13:00   1.01   78.7    34    2.6    28     8.1   822.8    0.00 
 187   13:10   0.96   79.8    34    2.7     2     9.1   822.8    0.00 
 187   13:20   0.99   81.0    33    2.5    51     7.3   822.8    0.00 
 187   13:30   0.96   80.8    32    2.2   106     6.7   822.7    0.00 
 187   13:40   0.94   80.8    32    2.6   349     7.2   822.6    0.00 
 187   13:50   0.93   80.5    32    2.3    75    12.7   822.5    0.00 
 187   14:00   0.91   80.3    32    2.3   356     8.7   822.4    0.00 
 187   14:10   0.90   80.1    33    3.2    11    11.5   822.3    0.00 
 187   14:20   0.88   79.7    33    2.2     2     6.7   822.1    0.00 
 187   14:30   0.85   79.5    33    2.3   315     7.5   822.0    0.00 
 187   14:40   0.83   79.6    32    1.9    54     6.2   821.9    0.00 
 187   14:50   0.81   79.3    33    2.4    47     8.0   821.9    0.00 
 187   15:00   0.79   80.2    32    1.7    51     4.5   821.8    0.00 
 187   15:10   0.76   79.1    32    1.9   222     5.0   821.8    0.00 
 187   15:20   0.74   80.0    32    1.5    59     5.0   821.9    0.00 
 187   15:30   0.75   79.2    32    1.7   121    10.6   822.1    0.00 
 187   15:40   0.79   79.1    32    1.6    98     7.1   822.1    0.00 
 187   15:50   0.85   79.8    34    1.8    55     6.8   821.9    0.00 
 187   16:00   0.71   79.6    34    1.8   359     6.7   821.8    0.00 
 187   16:10   0.46   77.6    36    2.0    44     4.4   821.8    0.00 
 187   16:20   0.38   76.7    37    1.1    69     9.3   821.6    0.00 
 187   16:30   0.32   75.1    39    1.5    34     5.3   821.6    0.00 
 187   16:40   0.26   74.3    41    1.4    78     5.9   821.5    0.00 
 187   16:50   0.19   73.4    41    1.7    58     6.1   821.5    0.00 
 187   17:00   0.16   73.0    42    1.0    97     4.3   821.6    0.00 
 187   17:10   0.14   72.5    42    0.9   100     3.1   821.6    0.00 
 187   17:20   0.12   72.1    44    0.6   120     5.0   821.7    0.00 
 187   17:30   0.10   71.6    47    1.1   142     4.2   821.9    0.00 
 187   17:40   0.11   71.0    48    0.9   142     5.6   821.9    0.00 
 187   17:50   0.09   70.5    48    0.7   132     3.4   821.7    0.00 
 187   18:00   0.07   70.1    49    0.3    89     1.5   821.7    0.00 
 187   18:10   0.07   69.4    50    0.4   128     2.6   821.7    0.00 
 187   18:20   0.06   68.9    52    0.4    36     3.0   821.6    0.00 
 187   18:30   0.04   68.0    54    0.2    57     1.4   821.7    0.00 
 187   18:40   0.03   67.1    56    0.3   231     1.0   821.7    0.00 
 187   18:50   0.03   66.3    56    0.3   244     1.1   821.7    0.00 
 187   19:00   0.01   65.8    58    0.1   288     0.8   821.6    0.00 
 187   19:10   0.01   65.1    59    0.9   239     1.4   821.6    0.00 
 187   19:20   0.01   64.3    60    1.2   220     1.8   821.6    0.00 
 187   19:30   0.00   63.8    63    1.5   214     2.0   821.6    0.00 
 187   19:40   0.00   62.9    65    1.0   208     1.6   821.6    0.00 
 187   19:50   0.00   62.1    68    1.1   217     1.7   821.5    0.00 
 187   20:00   0.00   61.2    69    1.6   201     2.0   821.6    0.00 

Return to Chickering American River Reserve graphs page.


Western Regional Climate Center,wrcc@dri.edu